createdAt,value
2018-11-05T00:00:20.123Z,99716.53
2018-11-05T00:02:50.640Z,99714.36
2018-11-05T00:05:19.378Z,99720.66
2018-11-05T00:07:47.995Z,99714.74
2018-11-05T00:10:16.778Z,99708.34
2018-11-05T00:12:45.392Z,99704.06
2018-11-05T00:15:14.084Z,99701.84
2018-11-05T00:17:42.744Z,99695.47
2018-11-05T00:20:12.094Z,99700.94
2018-11-05T00:22:40.771Z,99703.44
2018-11-05T00:25:11.424Z,99699.56
2018-11-05T00:27:40.549Z,99698.22
2018-11-05T00:30:10.748Z,99695.95
2018-11-05T00:32:39.407Z,99697.98
2018-11-05T00:35:08.058Z,99698.07
2018-11-05T00:37:36.753Z,99696.37
2018-11-05T00:40:08.095Z,99696.31
2018-11-05T00:42:36.745Z,99695.42
2018-11-05T00:45:06.877Z,99697.49
2018-11-05T00:47:35.543Z,99689.54
2018-11-05T00:50:05.065Z,99691.23
2018-11-05T00:52:33.675Z,99689.15
2018-11-05T00:55:02.970Z,99699.40
2018-11-05T00:57:31.671Z,99698.67
2018-11-05T01:00:00.704Z,99694.83
2018-11-05T01:02:29.521Z,99692.22
2018-11-05T01:04:58.234Z,99693.17
2018-11-05T01:07:26.872Z,99692.33
2018-11-05T01:09:55.525Z,99691.03
2018-11-05T01:12:24.172Z,99685.43
2018-11-05T01:14:52.820Z,99690.08
2018-11-05T01:17:21.460Z,99689.22
2018-11-05T01:19:50.117Z,99688.80
2018-11-05T01:22:18.798Z,99687.44
2018-11-05T01:24:47.691Z,99689.17
2018-11-05T01:27:16.314Z,99682.27
2018-11-05T01:29:45.393Z,99680.50
2018-11-05T01:32:15.366Z,99678.11
2018-11-05T01:34:45.920Z,99670.80
2018-11-05T01:37:14.555Z,99676.83
2018-11-05T01:39:43.153Z,99673.36
2018-11-05T01:42:11.788Z,99677.62
2018-11-05T01:44:40.415Z,99675.13
2018-11-05T01:47:09.207Z,99682.76
2018-11-05T01:52:16.899Z,99673.78
2018-11-05T01:54:45.633Z,99670.05
2018-11-05T01:57:16.523Z,99669.92
2018-11-05T01:59:45.602Z,99663.59
2018-11-05T02:02:14.317Z,99666.09
2018-11-05T02:04:43.645Z,99664.00
2018-11-05T02:07:12.268Z,99657.59
2018-11-05T02:09:40.880Z,99659.80
2018-11-05T02:12:09.523Z,99653.86
2018-11-05T02:14:38.148Z,99653.76
2018-11-05T02:17:06.836Z,99649.91
2018-11-05T02:19:35.492Z,99654.95
2018-11-05T02:22:04.162Z,99656.42
2018-11-05T02:24:33.202Z,99654.30
2018-11-05T02:27:07.163Z,99650.45
2018-11-05T02:29:35.793Z,99646.93
2018-11-05T02:32:04.581Z,99647.84
2018-11-05T02:34:33.280Z,99651.31
2018-11-05T02:37:02.187Z,99647.84
2018-11-05T02:39:30.866Z,99653.81
2018-11-05T02:41:59.528Z,99648.63
2018-11-05T02:44:28.114Z,99645.11
2018-11-05T02:46:56.760Z,99647.25
2018-11-05T02:49:25.390Z,99644.30
2018-11-05T02:51:54.035Z,99645.20
2018-11-05T02:54:22.649Z,99646.82
2018-11-05T02:56:51.237Z,99645.89
2018-11-05T02:59:19.833Z,99650.16
2018-11-05T03:01:48.466Z,99651.52
2018-11-05T03:04:17.064Z,99654.12
2018-11-05T03:06:45.723Z,99654.98
2018-11-05T03:09:14.339Z,99665.19
2018-11-05T03:11:42.976Z,99662.79
2018-11-05T03:14:11.618Z,99661.83
2018-11-05T03:16:40.228Z,99657.59
2018-11-05T03:19:09.007Z,99655.03
2018-11-05T03:21:37.614Z,99655.81
2018-11-05T03:24:06.369Z,99653.20
2018-11-05T03:26:35.014Z,99655.47
2018-11-05T03:29:03.697Z,99659.09
2018-11-05T03:31:32.305Z,99662.05
2018-11-05T03:34:01.003Z,99666.31
2018-11-05T03:36:29.808Z,99668.55
2018-11-05T03:38:58.562Z,99665.07
2018-11-05T03:41:27.161Z,99660.80
2018-11-05T03:43:55.877Z,99659.53
2018-11-05T03:46:24.562Z,99660.01
2018-11-05T03:48:53.381Z,99662.99
2018-11-05T03:51:22.002Z,99662.47
2018-11-05T03:53:50.710Z,99661.12
2018-11-05T03:56:19.514Z,99657.23
2018-11-05T03:58:48.265Z,99665.50
2018-11-05T04:01:16.956Z,99664.61
2018-11-05T04:03:45.902Z,99657.66
2018-11-05T04:06:14.546Z,99659.91
2018-11-05T04:08:43.266Z,99657.72
2018-11-05T04:11:11.915Z,99667.95
2018-11-05T04:13:40.526Z,99670.97
2018-11-05T04:16:09.216Z,99661.92
2018-11-05T04:18:37.838Z,99670.10
2018-11-05T04:21:06.606Z,99658.08
2018-11-05T04:23:35.286Z,99660.23
2018-11-05T04:26:04.113Z,99654.30
2018-11-05T04:28:32.809Z,99662.89
2018-11-05T04:31:01.420Z,99659.09
2018-11-05T04:33:30.032Z,99662.83
2018-11-05T04:35:58.859Z,99664.06
2018-11-05T04:38:27.446Z,99667.91
2018-11-05T04:40:56.342Z,99669.62
2018-11-05T04:43:24.978Z,99667.65
2018-11-05T04:45:53.778Z,99675.17
2018-11-05T04:48:22.574Z,99669.41
2018-11-05T04:50:51.323Z,99675.27
2018-11-05T04:53:19.915Z,99680.89
2018-11-05T04:55:48.774Z,99667.91
2018-11-05T04:58:17.420Z,99673.52
2018-11-05T05:00:46.280Z,99676.66
2018-11-05T05:03:14.941Z,99668.13
2018-11-05T05:05:43.570Z,99668.45
2018-11-05T05:08:12.279Z,99665.89
2018-11-05T05:10:40.961Z,99658.83
2018-11-05T05:13:09.600Z,99660.91
2018-11-05T05:15:38.562Z,99659.34
2018-11-05T05:18:08.013Z,99662.78
2018-11-05T05:20:36.646Z,99657.64
2018-11-05T05:23:06.441Z,99658.18
2018-11-05T05:25:34.972Z,99657.52
2018-11-05T05:28:04.001Z,99654.91
2018-11-05T05:30:32.634Z,99662.64
2018-11-05T05:33:01.506Z,99666.91
2018-11-05T05:35:30.071Z,99666.88
2018-11-05T05:37:58.707Z,99667.25
2018-11-05T05:40:30.042Z,99669.86
2018-11-05T05:42:58.768Z,99667.72
2018-11-05T05:45:31.759Z,99678.39
2018-11-05T05:48:01.124Z,99673.70
2018-11-05T05:50:29.736Z,99672.47
2018-11-05T05:52:58.618Z,99675.45
2018-11-05T05:55:27.485Z,99676.84
2018-11-05T05:57:56.903Z,99676.07
2018-11-05T06:00:25.599Z,99684.70
2018-11-05T06:02:54.627Z,99680.14
2018-11-05T06:05:23.311Z,99687.83
2018-11-05T06:07:51.958Z,99686.16
2018-11-05T06:10:20.600Z,99687.48
2018-11-05T06:12:49.226Z,99691.28
2018-11-05T06:15:18.000Z,99694.73
2018-11-05T06:17:46.644Z,99701.14
2018-11-05T06:20:17.195Z,99698.28
2018-11-05T06:22:46.715Z,99697.47
2018-11-05T06:25:15.590Z,99705.07
2018-11-05T06:27:44.315Z,99699.91
2018-11-05T06:30:15.654Z,99699.56
2018-11-05T06:32:45.458Z,99705.11
2018-11-05T06:35:14.265Z,99710.23
2018-11-05T06:37:43.032Z,99708.95
2018-11-05T06:40:14.631Z,99711.98
2018-11-05T06:42:43.809Z,99710.74
2018-11-05T06:45:13.916Z,99711.64
2018-11-05T06:47:43.518Z,99712.06
2018-11-05T06:50:17.409Z,99722.30
2018-11-05T06:52:46.309Z,99724.09
2018-11-05T06:55:15.741Z,99721.06
2018-11-05T06:57:44.468Z,99722.30
2018-11-05T07:00:16.210Z,99714.62
2018-11-05T07:02:45.109Z,99718.77
2018-11-05T07:05:14.268Z,99721.28
2018-11-05T07:07:42.968Z,99720.86
2018-11-05T07:10:12.970Z,99715.70
2018-11-05T07:12:42.322Z,99727.09
2018-11-05T07:15:12.578Z,99724.95
2018-11-05T07:17:41.565Z,99720.64
2018-11-05T07:20:12.618Z,99723.12
2018-11-05T07:22:41.343Z,99735.46
2018-11-05T07:25:11.433Z,99735.93
2018-11-05T07:27:40.189Z,99739.85
2018-11-05T07:30:22.212Z,99744.97
2018-11-05T07:32:52.037Z,99747.11
2018-11-05T07:35:20.798Z,99751.42
2018-11-05T07:37:49.534Z,99756.08
2018-11-05T07:40:19.279Z,99749.59
2018-11-05T07:42:48.038Z,99743.62
2018-11-05T07:45:21.277Z,99744.47
2018-11-05T07:47:50.115Z,99742.72
2018-11-05T07:50:19.675Z,99742.59
2018-11-05T07:52:48.516Z,99748.05
2018-11-05T07:55:18.335Z,99747.63
2018-11-05T07:57:47.997Z,99744.67
2018-11-05T08:00:22.310Z,99749.37
2018-11-05T08:02:52.744Z,99747.66
2018-11-05T08:05:22.011Z,99751.50
2018-11-05T08:07:51.031Z,99745.95
2018-11-05T08:10:19.850Z,99746.34
2018-11-05T08:12:48.583Z,99746.09
2018-11-05T08:15:18.725Z,99744.25
2018-11-05T08:17:48.399Z,99744.97
2018-11-05T08:20:17.328Z,99737.62
2018-11-05T08:22:45.998Z,99745.69
2018-11-05T08:25:15.671Z,99754.70
2018-11-05T08:27:44.441Z,99747.44
2018-11-05T08:30:21.502Z,99741.50
2018-11-05T08:32:50.333Z,99746.68
2018-11-05T08:35:19.268Z,99746.54
2018-11-05T08:37:53.216Z,99741.70
2018-11-05T08:40:23.967Z,99740.84
2018-11-05T08:42:53.481Z,99732.20
2018-11-05T08:45:23.501Z,99742.36
2018-11-05T08:47:52.208Z,99738.23
2018-11-05T08:50:22.326Z,99733.53
2018-11-05T08:52:50.970Z,99737.34
2018-11-05T08:55:21.037Z,99738.19
2018-11-05T08:57:49.834Z,99737.18
2018-11-05T09:00:24.225Z,99738.47
2018-11-05T09:02:53.524Z,99748.33
2018-11-05T09:05:22.461Z,99743.70
2018-11-05T09:07:52.141Z,99744.64
2018-11-05T09:10:20.995Z,99748.48
2018-11-05T09:12:49.618Z,99737.66
2018-11-05T09:15:19.547Z,99737.03
2018-11-05T09:17:48.546Z,99741.66
2018-11-05T09:20:18.192Z,99739.48
2018-11-05T09:22:47.380Z,99743.80
2018-11-05T09:25:16.788Z,99742.56
2018-11-05T09:27:45.524Z,99742.95
2018-11-05T09:30:17.042Z,99741.84
2018-11-05T09:32:46.240Z,99741.63
2018-11-05T09:35:15.001Z,99750.93
2018-11-05T09:37:43.718Z,99741.98
2018-11-05T09:40:14.897Z,99740.03
2018-11-05T09:42:44.426Z,99739.92
2018-11-05T09:45:15.462Z,99737.06
2018-11-05T09:47:44.774Z,99752.66
2018-11-05T09:50:16.911Z,99748.80
2018-11-05T09:52:45.710Z,99742.91
2018-11-05T09:55:14.927Z,99750.98
2018-11-05T09:57:43.698Z,99749.39
2018-11-05T10:00:13.983Z,99750.67
2018-11-05T10:02:48.020Z,99751.17
2018-11-05T10:05:17.130Z,99743.95
2018-11-05T10:07:46.123Z,99753.61
2018-11-05T10:10:15.835Z,99749.82
2018-11-05T10:12:44.846Z,99743.63
2018-11-05T10:15:14.600Z,99744.38
2018-11-05T10:17:43.342Z,99746.98
2018-11-05T10:20:15.349Z,99742.30
2018-11-05T10:22:44.537Z,99747.97
2018-11-05T10:25:13.783Z,99747.29
2018-11-05T10:27:42.526Z,99744.34
2018-11-05T10:30:13.602Z,99738.31
2018-11-05T10:32:42.850Z,99741.03
2018-11-05T10:35:12.127Z,99732.22
2018-11-05T10:37:40.978Z,99735.42
2018-11-05T10:40:13.697Z,99728.26
2018-11-05T10:42:43.198Z,99728.59
2018-11-05T10:45:13.363Z,99721.04
2018-11-05T10:47:42.408Z,99719.77
2018-11-05T10:50:12.593Z,99715.07
2018-11-05T10:52:41.309Z,99715.91
2018-11-05T10:55:10.457Z,99719.81
2018-11-05T10:57:39.668Z,99724.47
2018-11-05T11:00:30.285Z,99720.90
2018-11-05T11:03:04.017Z,99718.05
2018-11-05T11:05:33.050Z,99715.77
2018-11-05T11:08:02.555Z,99713.94
2018-11-05T11:10:32.423Z,99711.11
2018-11-05T11:13:01.140Z,99706.41
2018-11-05T11:15:30.165Z,99701.55
2018-11-05T11:17:59.166Z,99700.62
2018-11-05T11:20:27.847Z,99701.05
2018-11-05T11:22:56.588Z,99699.29
2018-11-05T11:25:25.314Z,99702.66
2018-11-05T11:27:54.134Z,99698.44
2018-11-05T11:30:22.798Z,99697.59
2018-11-05T11:32:52.658Z,99703.03
2018-11-05T11:35:21.368Z,99700.52
2018-11-05T11:37:50.104Z,99695.81
2018-11-05T11:40:20.350Z,99696.31
2018-11-05T11:42:49.655Z,99691.55
2018-11-05T11:45:19.629Z,99684.17
2018-11-05T11:47:48.302Z,99682.81
2018-11-05T11:50:17.580Z,99683.98
2018-11-05T11:52:46.765Z,99685.03
2018-11-05T11:55:17.772Z,99681.13
2018-11-05T11:57:46.619Z,99681.05
2018-11-05T12:00:21.515Z,99682.82
2018-11-05T12:02:50.591Z,99676.90
2018-11-05T12:05:19.449Z,99668.59
2018-11-05T12:07:47.994Z,99650.93
2018-11-05T12:10:22.674Z,99650.73
2018-11-05T12:12:52.075Z,99642.16
2018-11-05T12:15:21.810Z,99638.30
2018-11-05T12:17:51.619Z,99632.77
2018-11-05T12:20:21.686Z,99631.10
2018-11-05T12:22:50.859Z,99633.98
2018-11-05T12:25:19.558Z,99623.91
2018-11-05T12:27:48.287Z,99622.11
2018-11-05T12:30:19.088Z,99629.65
2018-11-05T12:32:48.699Z,99625.88
2018-11-05T12:35:17.445Z,99629.13
2018-11-05T12:37:47.254Z,99622.23
2018-11-05T12:40:16.997Z,99627.19
2018-11-05T12:42:46.766Z,99616.91
2018-11-05T12:45:15.486Z,99615.85
2018-11-05T12:47:44.244Z,99613.43
2018-11-05T12:50:15.626Z,99606.90
2018-11-05T12:52:45.490Z,99601.67
2018-11-05T12:55:19.165Z,99603.51
2018-11-05T12:57:48.210Z,99594.78
2018-11-05T13:00:19.843Z,99597.27
2018-11-05T13:03:00.823Z,99599.86
2018-11-05T13:05:30.622Z,99597.94
2018-11-05T13:07:59.366Z,99591.81
2018-11-05T13:10:28.056Z,99584.89
2018-11-05T13:12:57.119Z,99587.68
2018-11-05T13:15:25.891Z,99582.41
2018-11-05T13:17:54.469Z,99575.47
2018-11-05T13:20:24.141Z,99579.02
2018-11-05T13:22:53.445Z,99582.46
2018-11-05T13:25:22.128Z,99576.74
2018-11-05T13:27:51.542Z,99578.47
2018-11-05T13:30:20.398Z,99584.13
2018-11-05T13:32:50.258Z,99578.37
2018-11-05T13:35:20.196Z,99583.41
2018-11-05T13:37:49.334Z,99584.10
2018-11-05T13:40:24.251Z,99576.41
2018-11-05T13:42:53.150Z,99574.55
2018-11-05T13:45:22.539Z,99578.08
2018-11-05T13:47:51.856Z,99574.42
2018-11-05T13:50:20.125Z,99573.50
2018-11-05T13:52:48.604Z,99580.31
2018-11-05T13:55:17.773Z,99573.77
2018-11-05T13:57:47.646Z,99576.13
2018-11-05T14:00:17.477Z,99570.45
2018-11-05T14:02:46.417Z,99565.02
2018-11-05T14:05:16.455Z,99565.34
2018-11-05T14:07:45.511Z,99572.20
2018-11-05T14:10:17.786Z,99567.48
2018-11-05T14:12:47.002Z,99563.56
2018-11-05T14:15:15.697Z,99565.70
2018-11-05T14:17:45.180Z,99556.49
2018-11-05T14:20:14.949Z,99557.60
2018-11-05T14:22:44.771Z,99564.16
2018-11-05T14:25:14.619Z,99558.67
2018-11-05T14:27:44.775Z,99558.11
2018-11-05T14:30:13.901Z,99560.59
2018-11-05T14:32:43.916Z,99561.80
2018-11-05T14:35:12.661Z,99565.34
2018-11-05T14:37:41.513Z,99559.30
2018-11-05T14:40:12.213Z,99562.39
2018-11-05T14:42:42.078Z,99559.77
2018-11-05T14:45:12.837Z,99559.73
2018-11-05T14:47:42.515Z,99563.45
2018-11-05T14:50:13.107Z,99565.63
2018-11-05T14:52:41.889Z,99564.04
2018-11-05T14:55:13.010Z,99568.39
2018-11-05T14:57:42.222Z,99558.72
2018-11-05T15:00:13.961Z,99562.31
2018-11-05T15:02:43.155Z,99562.49
2018-11-05T15:05:12.668Z,99568.06
2018-11-05T15:07:42.126Z,99559.19
2018-11-05T15:10:13.497Z,99566.33
2018-11-05T15:12:42.799Z,99562.72
2018-11-05T15:15:12.485Z,99563.98
2018-11-05T15:17:42.399Z,99558.48
2018-11-05T15:20:13.570Z,99555.02
2018-11-05T15:22:42.482Z,99554.98
2018-11-05T15:25:11.816Z,99549.08
2018-11-05T15:27:40.850Z,99554.56
2018-11-05T15:30:12.699Z,99555.55
2018-11-05T15:32:42.043Z,99553.78
2018-11-05T15:35:11.832Z,99555.26
2018-11-05T15:37:42.889Z,99561.87
2018-11-05T15:40:14.935Z,99559.25
2018-11-05T15:42:44.428Z,99559.92
2018-11-05T15:45:14.926Z,99561.48
2018-11-05T15:47:44.482Z,99564.53
2018-11-05T15:50:14.895Z,99570.09
2018-11-05T15:52:44.104Z,99565.89
2018-11-05T15:55:13.352Z,99567.36
2018-11-05T15:57:43.619Z,99575.25
2018-11-05T16:00:32.246Z,99573.61
2018-11-05T16:03:01.948Z,99574.83
2018-11-05T16:05:30.787Z,99575.55
2018-11-05T16:08:01.441Z,99571.41
2018-11-05T16:10:30.326Z,99573.97
2018-11-05T16:12:59.720Z,99572.27
2018-11-05T16:15:29.143Z,99570.59
2018-11-05T16:17:57.949Z,99567.42
2018-11-05T16:20:26.671Z,99572.61
2018-11-05T16:22:55.885Z,99575.67
2018-11-05T16:25:24.789Z,99575.11
2018-11-05T16:27:53.501Z,99573.42
2018-11-05T16:30:22.718Z,99575.42
2018-11-05T16:32:52.198Z,99580.92
2018-11-05T16:35:21.994Z,99585.08
2018-11-05T16:37:52.390Z,99588.14
2018-11-05T16:40:21.224Z,99586.17
2018-11-05T16:42:51.598Z,99585.86
2018-11-05T16:45:21.235Z,99592.41
2018-11-05T16:47:50.458Z,99585.44
2018-11-05T16:50:26.779Z,99579.20
2018-11-05T16:52:55.523Z,99583.77
2018-11-05T16:55:24.822Z,99578.95
2018-11-05T16:57:54.857Z,99587.44
2018-11-05T17:00:24.064Z,99587.56
2018-11-05T17:02:53.733Z,99586.17
2018-11-05T17:05:24.712Z,99589.53
2018-11-05T17:07:53.449Z,99593.81
2018-11-05T17:10:22.161Z,99592.70
2018-11-05T17:12:50.861Z,99585.99
2018-11-05T17:15:19.549Z,99580.57
2018-11-05T17:17:48.209Z,99586.31
2018-11-05T17:20:18.223Z,99585.25
2018-11-05T17:22:46.841Z,99580.14
2018-11-05T17:25:16.067Z,99582.34
2018-11-05T17:27:45.713Z,99584.05
2018-11-05T17:30:16.844Z,99583.98
2018-11-05T17:32:45.681Z,99584.95
2018-11-05T17:35:15.169Z,99588.92
2018-11-05T17:37:44.293Z,99585.20
2018-11-05T17:40:15.117Z,99595.95
2018-11-05T17:42:43.932Z,99592.09
2018-11-05T17:45:14.925Z,99585.31
2018-11-05T17:47:43.685Z,99579.88
2018-11-05T17:50:14.486Z,99584.27
2018-11-05T17:52:43.777Z,99584.78
2018-11-05T17:55:13.365Z,99577.92
2018-11-05T17:57:43.186Z,99582.58
2018-11-05T18:00:22.114Z,99578.11
2018-11-05T18:02:50.766Z,99576.59
2018-11-05T18:05:19.726Z,99575.73
2018-11-05T18:07:48.490Z,99576.15
2018-11-05T18:10:17.253Z,99571.53
2018-11-05T18:12:46.113Z,99574.93
2018-11-05T18:15:14.812Z,99578.30
2018-11-05T18:17:45.671Z,99577.88
2018-11-05T18:20:15.197Z,99571.83
2018-11-05T18:22:44.893Z,99573.59
2018-11-05T18:25:14.955Z,99562.41
2018-11-05T18:27:43.739Z,99570.05
2018-11-05T18:30:13.257Z,99577.88
2018-11-05T18:32:41.961Z,99571.60
2018-11-05T18:35:12.078Z,99559.27
2018-11-05T18:37:41.295Z,99566.95
2018-11-05T18:40:14.942Z,99564.51
2018-11-05T18:42:44.281Z,99563.78
2018-11-05T18:45:13.275Z,99566.47
2018-11-05T18:47:43.336Z,99566.53
2018-11-05T18:50:13.879Z,99567.94
2018-11-05T18:52:42.895Z,99573.87
2018-11-05T18:55:12.960Z,99575.03
2018-11-05T18:57:41.871Z,99570.12
2018-11-05T19:00:19.204Z,99573.59
2018-11-05T19:02:50.397Z,99575.91
2018-11-05T19:05:21.299Z,99580.81
2018-11-05T19:07:50.505Z,99580.44
2018-11-05T19:10:19.425Z,99573.30
2018-11-05T19:12:49.491Z,99573.61
2018-11-05T19:15:19.042Z,99572.63
2018-11-05T19:17:48.838Z,99572.73
2018-11-05T19:20:19.512Z,99570.98
2018-11-05T19:22:48.494Z,99570.92
2018-11-05T19:25:18.303Z,99570.92
2018-11-05T19:27:47.050Z,99574.77
2018-11-05T19:30:19.484Z,99574.84
2018-11-05T19:32:48.348Z,99576.41
2018-11-05T19:35:17.070Z,99577.33
2018-11-05T19:37:45.885Z,99584.17
2018-11-05T19:40:15.572Z,99587.70
2018-11-05T19:42:45.753Z,99590.47
2018-11-05T19:45:16.592Z,99592.25
2018-11-05T19:47:45.487Z,99594.32
2018-11-05T19:50:17.244Z,99595.19
2018-11-05T19:52:47.023Z,99595.92
2018-11-05T19:55:16.704Z,99590.47
2018-11-05T19:57:46.190Z,99596.47
2018-11-05T20:00:16.061Z,99593.52
2018-11-05T20:02:45.401Z,99596.20
2018-11-05T20:05:14.764Z,99590.17
2018-11-05T20:07:43.677Z,99583.27
2018-11-05T20:10:12.958Z,99582.37
2018-11-05T20:12:42.668Z,99581.20
2018-11-05T20:15:11.769Z,99581.36
2018-11-05T20:17:41.993Z,99586.20
2018-11-05T20:20:12.810Z,99584.29
2018-11-05T20:22:41.559Z,99586.85
2018-11-05T20:25:10.458Z,99587.65
2018-11-05T20:27:40.348Z,99585.89
2018-11-05T20:30:13.982Z,99595.40
2018-11-05T20:32:43.565Z,99585.95
2018-11-05T20:35:12.062Z,99601.05
2018-11-05T20:37:40.771Z,99598.97
2018-11-05T20:40:12.525Z,99607.09
2018-11-05T20:42:41.853Z,99603.67
2018-11-05T20:45:10.597Z,99599.35
2018-11-05T20:47:39.674Z,99605.37
2018-11-05T20:50:09.388Z,99608.03
2018-11-05T20:52:38.414Z,99608.51
2018-11-05T20:55:07.930Z,99609.70
2018-11-05T20:57:36.944Z,99610.98
2018-11-05T21:00:07.191Z,99615.19
2018-11-05T21:02:35.982Z,99610.55
2018-11-05T21:05:04.971Z,99605.27
2018-11-05T21:07:33.999Z,99608.97
2018-11-05T21:10:03.173Z,99602.23
2018-11-05T21:12:32.676Z,99605.66
2018-11-05T21:15:01.416Z,99609.44
2018-11-05T21:17:30.077Z,99606.50
2018-11-05T21:19:58.810Z,99598.66
2018-11-05T21:22:28.477Z,99605.06
2018-11-05T21:24:57.272Z,99605.96
2018-11-05T21:27:26.428Z,99605.97
2018-11-05T21:29:55.097Z,99608.01
2018-11-05T21:32:25.660Z,99608.58
2018-11-05T21:34:55.689Z,99601.80
2018-11-05T21:37:24.514Z,99605.32
2018-11-05T21:39:53.184Z,99604.42
2018-11-05T21:42:22.372Z,99604.95
2018-11-05T21:44:51.098Z,99603.55
2018-11-05T21:47:19.756Z,99598.22
2018-11-05T21:49:48.509Z,99602.44
2018-11-05T21:52:17.150Z,99598.33
2018-11-05T21:54:46.209Z,99600.04
2018-11-05T21:57:14.936Z,99597.69
2018-11-05T21:59:43.597Z,99600.02
2018-11-05T22:02:12.250Z,99600.52
2018-11-05T22:04:41.005Z,99594.38
2018-11-05T22:07:09.676Z,99583.70
2018-11-05T22:09:38.318Z,99589.15
2018-11-05T22:12:07.094Z,99581.36
2018-11-05T22:14:35.807Z,99584.81
2018-11-05T22:17:04.445Z,99584.02
2018-11-05T22:19:33.150Z,99588.66
2018-11-05T22:22:07.415Z,99586.96
2018-11-05T22:24:36.057Z,99582.64
2018-11-05T22:27:04.778Z,99587.44
2018-11-05T22:29:33.413Z,99584.27
2018-11-05T22:32:02.067Z,99589.41
2018-11-05T22:34:30.739Z,99582.52
2018-11-05T22:36:59.449Z,99583.28
2018-11-05T22:39:28.089Z,99596.16
2018-11-05T22:41:56.723Z,99590.64
2018-11-05T22:44:25.460Z,99591.83
2018-11-05T22:46:54.281Z,99591.75
2018-11-05T22:49:22.880Z,99596.62
2018-11-05T22:51:51.559Z,99602.71
2018-11-05T22:54:20.195Z,99593.89
2018-11-05T22:56:48.913Z,99612.11
2018-11-05T22:59:17.609Z,99613.70
2018-11-05T23:01:51.345Z,99608.21
2018-11-05T23:04:20.709Z,99608.69
2018-11-05T23:06:50.176Z,99607.03
2018-11-05T23:09:18.861Z,99608.98
2018-11-05T23:11:47.961Z,99607.23
2018-11-05T23:14:16.608Z,99608.95
2018-11-05T23:16:45.518Z,99603.06
2018-11-05T23:19:14.783Z,99606.00
2018-11-05T23:21:43.489Z,99606.80
2018-11-05T23:24:12.150Z,99608.14
2018-11-05T23:26:40.788Z,99598.75
2018-11-05T23:29:09.408Z,99601.91
2018-11-05T23:31:38.018Z,99596.03
2018-11-05T23:34:06.841Z,99607.52
2018-11-05T23:36:35.486Z,99592.66
2018-11-05T23:39:09.488Z,99603.02
2018-11-05T23:41:38.225Z,99598.86
2018-11-05T23:44:07.356Z,99604.97
2018-11-05T23:46:36.134Z,99610.16
2018-11-05T23:49:04.875Z,99602.03
2018-11-05T23:51:33.580Z,99600.47
2018-11-05T23:54:02.189Z,99600.91
2018-11-05T23:56:30.897Z,99600.13
2018-11-05T23:58:59.565Z,99604.03
